sensor_id;sensor_type;location;lat;lon;timestamp;P1;durP1;ratioP1;P2;durP2;ratioP2
11066;SDS011;29763;50.904;5.530;2022-12-18T00:01:22;35.43;;;18.13;;
11066;SDS011;29763;50.904;5.530;2022-12-18T00:03:56;38.93;;;19.33;;
11066;SDS011;29763;50.904;5.530;2022-12-18T00:06:29;34.00;;;19.60;;
11066;SDS011;29763;50.904;5.530;2022-12-18T00:08:57;39.33;;;19.87;;
11066;SDS011;29763;50.904;5.530;2022-12-18T00:11:26;36.57;;;19.67;;
11066;SDS011;29763;50.904;5.530;2022-12-18T00:13:55;34.13;;;17.70;;
11066;SDS011;29763;50.904;5.530;2022-12-18T00:16:23;39.70;;;18.83;;
11066;SDS011;29763;50.904;5.530;2022-12-18T00:18:53;33.83;;;18.63;;
11066;SDS011;29763;50.904;5.530;2022-12-18T00:21:20;36.97;;;18.77;;
11066;SDS011;29763;50.904;5.530;2022-12-18T00:23:47;35.23;;;18.07;;
11066;SDS011;29763;50.904;5.530;2022-12-18T00:26:19;33.57;;;18.07;;
11066;SDS011;29763;50.904;5.530;2022-12-18T00:28:49;34.90;;;17.50;;
11066;SDS011;29763;50.904;5.530;2022-12-18T00:31:17;33.63;;;18.03;;
11066;SDS011;29763;50.904;5.530;2022-12-18T00:33:44;38.43;;;19.43;;
11066;SDS011;29763;50.904;5.530;2022-12-18T00:36:16;36.87;;;18.87;;
11066;SDS011;29763;50.904;5.530;2022-12-18T00:38:44;32.83;;;17.23;;
11066;SDS011;29763;50.904;5.530;2022-12-18T00:41:12;33.43;;;17.67;;
11066;SDS011;29763;50.904;5.530;2022-12-18T00:44:01;32.87;;;17.43;;
11066;SDS011;29763;50.904;5.530;2022-12-18T00:46:34;33.70;;;17.63;;
11066;SDS011;29763;50.904;5.530;2022-12-18T00:49:07;34.90;;;17.10;;
11066;SDS011;29763;50.904;5.530;2022-12-18T00:51:33;30.90;;;17.10;;
11066;SDS011;29763;50.904;5.530;2022-12-18T00:53:59;34.47;;;16.13;;
11066;SDS011;29763;50.904;5.530;2022-12-18T00:56:26;30.87;;;16.23;;
11066;SDS011;29763;50.904;5.530;2022-12-18T00:58:53;32.57;;;16.73;;
11066;SDS011;29763;50.904;5.530;2022-12-18T01:01:19;31.17;;;17.37;;
11066;SDS011;29763;50.904;5.530;2022-12-18T01:03:46;33.67;;;17.30;;
11066;SDS011;29763;50.904;5.530;2022-12-18T01:06:12;34.73;;;18.03;;
11066;SDS011;29763;50.904;5.530;2022-12-18T01:08:40;32.70;;;18.27;;
11066;SDS011;29763;50.904;5.530;2022-12-18T01:11:13;31.90;;;16.37;;
11066;SDS011;29763;50.904;5.530;2022-12-18T01:13:40;30.80;;;15.57;;
11066;SDS011;29763;50.904;5.530;2022-12-18T01:16:14;37.53;;;17.27;;
11066;SDS011;29763;50.904;5.530;2022-12-18T01:18:41;28.43;;;15.83;;
11066;SDS011;29763;50.904;5.530;2022-12-18T01:21:12;28.40;;;16.33;;
11066;SDS011;29763;50.904;5.530;2022-12-18T01:23:39;29.40;;;16.30;;
11066;SDS011;29763;50.904;5.530;2022-12-18T01:26:08;35.10;;;15.80;;
11066;SDS011;29763;50.904;5.530;2022-12-18T01:28:39;28.90;;;15.80;;
11066;SDS011;29763;50.904;5.530;2022-12-18T01:31:09;27.03;;;15.40;;
11066;SDS011;29763;50.904;5.530;2022-12-18T01:33:41;31.97;;;16.60;;
11066;SDS011;29763;50.904;5.530;2022-12-18T01:36:08;31.70;;;17.13;;
11066;SDS011;29763;50.904;5.530;2022-12-18T01:38:39;30.87;;;16.20;;
11066;SDS011;29763;50.904;5.530;2022-12-18T01:41:05;33.20;;;16.80;;
11066;SDS011;29763;50.904;5.530;2022-12-18T01:43:45;29.03;;;15.93;;
11066;SDS011;29763;50.904;5.530;2022-12-18T01:46:14;29.37;;;15.70;;
11066;SDS011;29763;50.904;5.530;2022-12-18T01:48:41;32.03;;;16.10;;
11066;SDS011;29763;50.904;5.530;2022-12-18T01:51:09;30.60;;;16.23;;
11066;SDS011;29763;50.904;5.530;2022-12-18T01:53:37;32.40;;;16.47;;
11066;SDS011;29763;50.904;5.530;2022-12-18T01:56:05;27.93;;;15.33;;
11066;SDS011;29763;50.904;5.530;2022-12-18T01:58:37;27.57;;;16.00;;
11066;SDS011;29763;50.904;5.530;2022-12-18T02:01:23;29.30;;;15.50;;
11066;SDS011;29763;50.904;5.530;2022-12-18T02:09:58;28.80;;;15.20;;
11066;SDS011;29763;50.904;5.530;2022-12-18T02:12:30;24.20;;;14.33;;
11066;SDS011;29763;50.904;5.530;2022-12-18T02:15:44;26.57;;;14.93;;
11066;SDS011;29763;50.904;5.530;2022-12-18T02:18:28;27.50;;;15.23;;
11066;SDS011;29763;50.904;5.530;2022-12-18T02:27:19;27.10;;;13.70;;
11066;SDS011;29763;50.904;5.530;2022-12-18T02:29:50;27.40;;;14.57;;
11066;SDS011;29763;50.904;5.530;2022-12-18T02:32:19;25.43;;;13.77;;
11066;SDS011;29763;50.904;5.530;2022-12-18T02:34:50;23.63;;;13.67;;
11066;SDS011;29763;50.904;5.530;2022-12-18T02:37:17;29.53;;;14.73;;
11066;SDS011;29763;50.904;5.530;2022-12-18T02:39:46;25.43;;;13.93;;
11066;SDS011;29763;50.904;5.530;2022-12-18T02:42:13;23.53;;;14.43;;
11066;SDS011;29763;50.904;5.530;2022-12-18T02:44:44;26.70;;;14.00;;
11066;SDS011;29763;50.904;5.530;2022-12-18T02:47:13;27.20;;;14.03;;
11066;SDS011;29763;50.904;5.530;2022-12-18T02:58:44;23.33;;;13.47;;
11066;SDS011;29763;50.904;5.530;2022-12-18T03:04:26;27.17;;;14.13;;
11066;SDS011;29763;50.904;5.530;2022-12-18T03:07:14;24.03;;;14.17;;
11066;SDS011;29763;50.904;5.530;2022-12-18T03:09:52;23.80;;;13.63;;
11066;SDS011;29763;50.904;5.530;2022-12-18T03:12:21;23.87;;;14.83;;
11066;SDS011;29763;50.904;5.530;2022-12-18T03:17:36;28.20;;;15.00;;
11066;SDS011;29763;50.904;5.530;2022-12-18T03:20:06;24.67;;;13.87;;
11066;SDS011;29763;50.904;5.530;2022-12-18T03:22:38;23.97;;;14.93;;
11066;SDS011;29763;50.904;5.530;2022-12-18T03:25:06;23.97;;;14.30;;
11066;SDS011;29763;50.904;5.530;2022-12-18T03:27:36;23.70;;;15.30;;
11066;SDS011;29763;50.904;5.530;2022-12-18T03:30:08;25.57;;;14.53;;
11066;SDS011;29763;50.904;5.530;2022-12-18T03:33:00;25.83;;;14.93;;
11066;SDS011;29763;50.904;5.530;2022-12-18T03:35:39;25.00;;;14.00;;
11066;SDS011;29763;50.904;5.530;2022-12-18T03:38:09;26.43;;;14.67;;
11066;SDS011;29763;50.904;5.530;2022-12-18T03:49:21;28.17;;;14.47;;
11066;SDS011;29763;50.904;5.530;2022-12-18T03:51:57;24.17;;;13.67;;
11066;SDS011;29763;50.904;5.530;2022-12-18T03:54:36;26.53;;;14.37;;
11066;SDS011;29763;50.904;5.530;2022-12-18T03:57:09;23.17;;;13.80;;
11066;SDS011;29763;50.904;5.530;2022-12-18T03:59:40;24.37;;;13.43;;
11066;SDS011;29763;50.904;5.530;2022-12-18T04:02:11;25.50;;;13.20;;
11066;SDS011;29763;50.904;5.530;2022-12-18T04:04:38;21.73;;;12.97;;
11066;SDS011;29763;50.904;5.530;2022-12-18T04:07:05;26.53;;;13.87;;
11066;SDS011;29763;50.904;5.530;2022-12-18T04:09:31;27.73;;;14.57;;
11066;SDS011;29763;50.904;5.530;2022-12-18T04:12:00;25.67;;;14.63;;
11066;SDS011;29763;50.904;5.530;2022-12-18T04:14:26;23.80;;;14.10;;
11066;SDS011;29763;50.904;5.530;2022-12-18T04:16:52;27.87;;;14.57;;
11066;SDS011;29763;50.904;5.530;2022-12-18T04:19:19;27.13;;;14.37;;
11066;SDS011;29763;50.904;5.530;2022-12-18T04:21:44;23.33;;;13.53;;
11066;SDS011;29763;50.904;5.530;2022-12-18T04:24:11;28.00;;;14.30;;
11066;SDS011;29763;50.904;5.530;2022-12-18T04:26:39;25.97;;;13.97;;
11066;SDS011;29763;50.904;5.530;2022-12-18T04:29:04;28.57;;;16.40;;
11066;SDS011;29763;50.904;5.530;2022-12-18T04:31:30;32.00;;;16.53;;
11066;SDS011;29763;50.904;5.530;2022-12-18T04:33:56;29.77;;;15.60;;
11066;SDS011;29763;50.904;5.530;2022-12-18T04:36:22;27.83;;;15.67;;
11066;SDS011;29763;50.904;5.530;2022-12-18T04:38:49;27.03;;;15.03;;
11066;SDS011;29763;50.904;5.530;2022-12-18T04:41:22;28.00;;;14.73;;
11066;SDS011;29763;50.904;5.530;2022-12-18T04:43:49;28.60;;;15.23;;
11066;SDS011;29763;50.904;5.530;2022-12-18T04:46:17;25.80;;;14.77;;
11066;SDS011;29763;50.904;5.530;2022-12-18T04:48:45;25.30;;;14.23;;
11066;SDS011;29763;50.904;5.530;2022-12-18T04:51:13;23.27;;;14.17;;
11066;SDS011;29763;50.904;5.530;2022-12-18T04:53:43;25.23;;;14.10;;
11066;SDS011;29763;50.904;5.530;2022-12-18T04:56:12;24.30;;;13.20;;
11066;SDS011;29763;50.904;5.530;2022-12-18T04:58:40;23.80;;;14.07;;
11066;SDS011;29763;50.904;5.530;2022-12-18T05:01:09;24.73;;;13.47;;
11066;SDS011;29763;50.904;5.530;2022-12-18T05:03:36;22.70;;;12.77;;
11066;SDS011;29763;50.904;5.530;2022-12-18T05:06:10;22.60;;;13.30;;
11066;SDS011;29763;50.904;5.530;2022-12-18T05:08:37;28.40;;;13.63;;
11066;SDS011;29763;50.904;5.530;2022-12-18T05:11:13;24.53;;;14.10;;
11066;SDS011;29763;50.904;5.530;2022-12-18T05:13:43;22.93;;;13.83;;
11066;SDS011;29763;50.904;5.530;2022-12-18T05:16:10;24.50;;;13.57;;
11066;SDS011;29763;50.904;5.530;2022-12-18T05:18:37;22.43;;;13.13;;
11066;SDS011;29763;50.904;5.530;2022-12-18T05:21:04;25.37;;;13.33;;
11066;SDS011;29763;50.904;5.530;2022-12-18T05:23:30;25.30;;;14.17;;
11066;SDS011;29763;50.904;5.530;2022-12-18T05:26:01;25.30;;;14.13;;
11066;SDS011;29763;50.904;5.530;2022-12-18T05:28:29;26.13;;;15.10;;
11066;SDS011;29763;50.904;5.530;2022-12-18T05:30:59;27.67;;;14.67;;
11066;SDS011;29763;50.904;5.530;2022-12-18T05:33:28;23.90;;;12.93;;
11066;SDS011;29763;50.904;5.530;2022-12-18T05:35:59;27.67;;;14.13;;
11066;SDS011;29763;50.904;5.530;2022-12-18T05:38:27;22.47;;;13.27;;
11066;SDS011;29763;50.904;5.530;2022-12-18T05:40:57;20.03;;;13.43;;
11066;SDS011;29763;50.904;5.530;2022-12-18T05:43:23;21.77;;;13.37;;
11066;SDS011;29763;50.904;5.530;2022-12-18T05:45:51;22.23;;;13.07;;
11066;SDS011;29763;50.904;5.530;2022-12-18T05:48:18;20.03;;;12.03;;
11066;SDS011;29763;50.904;5.530;2022-12-18T05:50:44;21.37;;;12.50;;
11066;SDS011;29763;50.904;5.530;2022-12-18T05:53:13;22.60;;;12.37;;
11066;SDS011;29763;50.904;5.530;2022-12-18T05:55:40;20.63;;;11.80;;
11066;SDS011;29763;50.904;5.530;2022-12-18T05:58:07;20.43;;;11.90;;
11066;SDS011;29763;50.904;5.530;2022-12-18T06:00:34;20.00;;;12.63;;
11066;SDS011;29763;50.904;5.530;2022-12-18T06:03:05;18.23;;;11.07;;
11066;SDS011;29763;50.904;5.530;2022-12-18T06:05:35;20.03;;;10.93;;
11066;SDS011;29763;50.904;5.530;2022-12-18T06:08:02;20.93;;;11.27;;
11066;SDS011;29763;50.904;5.530;2022-12-18T06:10:27;23.13;;;12.97;;
11066;SDS011;29763;50.904;5.530;2022-12-18T06:12:53;22.50;;;11.93;;
11066;SDS011;29763;50.904;5.530;2022-12-18T06:15:19;21.70;;;11.97;;
11066;SDS011;29763;50.904;5.530;2022-12-18T06:17:45;18.70;;;10.70;;
11066;SDS011;29763;50.904;5.530;2022-12-18T06:20:11;21.97;;;11.87;;
11066;SDS011;29763;50.904;5.530;2022-12-18T06:22:38;20.40;;;11.90;;
11066;SDS011;29763;50.904;5.530;2022-12-18T06:25:04;18.23;;;11.23;;
11066;SDS011;29763;50.904;5.530;2022-12-18T06:27:32;21.60;;;12.53;;
11066;SDS011;29763;50.904;5.530;2022-12-18T06:29:58;20.93;;;12.33;;
11066;SDS011;29763;50.904;5.530;2022-12-18T06:32:25;19.67;;;11.27;;
11066;SDS011;29763;50.904;5.530;2022-12-18T06:34:50;21.63;;;12.37;;
11066;SDS011;29763;50.904;5.530;2022-12-18T06:37:16;19.67;;;11.90;;
11066;SDS011;29763;50.904;5.530;2022-12-18T06:39:43;20.90;;;12.03;;
11066;SDS011;29763;50.904;5.530;2022-12-18T06:42:09;20.57;;;12.03;;
11066;SDS011;29763;50.904;5.530;2022-12-18T06:44:35;20.83;;;11.70;;
11066;SDS011;29763;50.904;5.530;2022-12-18T06:47:01;19.87;;;10.73;;
11066;SDS011;29763;50.904;5.530;2022-12-18T06:49:33;19.33;;;11.33;;
11066;SDS011;29763;50.904;5.530;2022-12-18T06:52:01;19.07;;;11.20;;
11066;SDS011;29763;50.904;5.530;2022-12-18T06:54:27;17.83;;;10.87;;
11066;SDS011;29763;50.904;5.530;2022-12-18T06:56:52;18.27;;;10.23;;
11066;SDS011;29763;50.904;5.530;2022-12-18T06:59:18;18.73;;;10.67;;
11066;SDS011;29763;50.904;5.530;2022-12-18T07:01:44;17.97;;;10.73;;
11066;SDS011;29763;50.904;5.530;2022-12-18T07:04:11;15.60;;;10.13;;
11066;SDS011;29763;50.904;5.530;2022-12-18T07:06:47;16.80;;;10.37;;
11066;SDS011;29763;50.904;5.530;2022-12-18T07:09:14;18.23;;;10.77;;
11066;SDS011;29763;50.904;5.530;2022-12-18T07:11:40;20.47;;;10.57;;
11066;SDS011;29763;50.904;5.530;2022-12-18T07:14:06;15.37;;;10.30;;
11066;SDS011;29763;50.904;5.530;2022-12-18T07:16:32;15.67;;;9.77;;
11066;SDS011;29763;50.904;5.530;2022-12-18T07:19:01;18.50;;;10.47;;
11066;SDS011;29763;50.904;5.530;2022-12-18T07:21:27;16.23;;;9.80;;
11066;SDS011;29763;50.904;5.530;2022-12-18T07:24:00;17.47;;;10.27;;
11066;SDS011;29763;50.904;5.530;2022-12-18T07:26:26;19.60;;;10.63;;
11066;SDS011;29763;50.904;5.530;2022-12-18T07:28:54;19.60;;;10.77;;
11066;SDS011;29763;50.904;5.530;2022-12-18T07:31:22;18.73;;;10.53;;
11066;SDS011;29763;50.904;5.530;2022-12-18T07:33:49;16.53;;;10.63;;
11066;SDS011;29763;50.904;5.530;2022-12-18T07:36:15;29.17;;;13.27;;
11066;SDS011;29763;50.904;5.530;2022-12-18T07:38:42;31.20;;;14.10;;
11066;SDS011;29763;50.904;5.530;2022-12-18T07:41:09;30.70;;;14.53;;
11066;SDS011;29763;50.904;5.530;2022-12-18T07:43:37;22.27;;;11.17;;
11066;SDS011;29763;50.904;5.530;2022-12-18T07:46:03;23.47;;;12.33;;
11066;SDS011;29763;50.904;5.530;2022-12-18T07:48:31;26.83;;;12.37;;
11066;SDS011;29763;50.904;5.530;2022-12-18T07:51:05;25.17;;;12.07;;
11066;SDS011;29763;50.904;5.530;2022-12-18T07:53:32;23.40;;;12.20;;
11066;SDS011;29763;50.904;5.530;2022-12-18T08:06:07;20.17;;;10.70;;
11066;SDS011;29763;50.904;5.530;2022-12-18T08:08:34;22.07;;;11.57;;
11066;SDS011;29763;50.904;5.530;2022-12-18T08:11:00;19.37;;;11.53;;
11066;SDS011;29763;50.904;5.530;2022-12-18T08:13:27;21.40;;;12.33;;
11066;SDS011;29763;50.904;5.530;2022-12-18T08:18:23;21.17;;;11.60;;
11066;SDS011;29763;50.904;5.530;2022-12-18T08:20:49;21.20;;;12.23;;
11066;SDS011;29763;50.904;5.530;2022-12-18T08:23:16;21.77;;;12.57;;
11066;SDS011;29763;50.904;5.530;2022-12-18T08:25:45;25.60;;;12.97;;
11066;SDS011;29763;50.904;5.530;2022-12-18T08:30:56;23.93;;;10.97;;
11066;SDS011;29763;50.904;5.530;2022-12-18T08:36:44;31.97;;;15.63;;
11066;SDS011;29763;50.904;5.530;2022-12-18T08:39:11;32.13;;;14.57;;
11066;SDS011;29763;50.904;5.530;2022-12-18T08:41:36;27.40;;;14.47;;
11066;SDS011;29763;50.904;5.530;2022-12-18T08:44:02;26.03;;;14.07;;
11066;SDS011;29763;50.904;5.530;2022-12-18T08:46:46;24.00;;;13.10;;
11066;SDS011;29763;50.904;5.530;2022-12-18T08:49:16;21.93;;;12.93;;
11066;SDS011;29763;50.904;5.530;2022-12-18T08:58:56;18.17;;;11.77;;
11066;SDS011;29763;50.904;5.530;2022-12-18T09:01:22;19.87;;;12.20;;
11066;SDS011;29763;50.904;5.530;2022-12-18T09:03:48;18.77;;;12.80;;
11066;SDS011;29763;50.904;5.530;2022-12-18T09:06:16;17.73;;;11.37;;
11066;SDS011;29763;50.904;5.530;2022-12-18T09:11:29;21.97;;;12.73;;
11066;SDS011;29763;50.904;5.530;2022-12-18T09:13:56;27.10;;;14.63;;
11066;SDS011;29763;50.904;5.530;2022-12-18T09:16:23;24.73;;;14.27;;
11066;SDS011;29763;50.904;5.530;2022-12-18T09:18:50;23.93;;;14.37;;
11066;SDS011;29763;50.904;5.530;2022-12-18T09:21:24;24.20;;;14.20;;
11066;SDS011;29763;50.904;5.530;2022-12-18T09:23:54;23.57;;;13.50;;
11066;SDS011;29763;50.904;5.530;2022-12-18T09:26:21;21.07;;;12.37;;
11066;SDS011;29763;50.904;5.530;2022-12-18T09:28:49;18.30;;;11.53;;
11066;SDS011;29763;50.904;5.530;2022-12-18T09:31:15;20.20;;;12.73;;
11066;SDS011;29763;50.904;5.530;2022-12-18T09:33:44;19.00;;;11.10;;
11066;SDS011;29763;50.904;5.530;2022-12-18T09:36:14;19.57;;;11.97;;
11066;SDS011;29763;50.904;5.530;2022-12-18T09:38:42;19.00;;;12.20;;
11066;SDS011;29763;50.904;5.530;2022-12-18T09:43:57;22.10;;;13.00;;
11066;SDS011;29763;50.904;5.530;2022-12-18T09:49:45;19.57;;;12.83;;
11066;SDS011;29763;50.904;5.530;2022-12-18T09:52:16;21.60;;;13.33;;
11066;SDS011;29763;50.904;5.530;2022-12-18T09:57:30;20.67;;;12.80;;
11066;SDS011;29763;50.904;5.530;2022-12-18T10:00:11;19.33;;;12.67;;
11066;SDS011;29763;50.904;5.530;2022-12-18T10:03:01;21.77;;;12.83;;
11066;SDS011;29763;50.904;5.530;2022-12-18T10:08:49;20.07;;;12.60;;
11066;SDS011;29763;50.904;5.530;2022-12-18T10:14:09;20.70;;;12.30;;
11066;SDS011;29763;50.904;5.530;2022-12-18T10:20:48;18.50;;;11.63;;
11066;SDS011;29763;50.904;5.530;2022-12-18T10:23:08;21.90;;;12.90;;
11066;SDS011;29763;50.904;5.530;2022-12-18T10:31:07;18.43;;;12.37;;
11066;SDS011;29763;50.904;5.530;2022-12-18T10:33:40;19.07;;;12.27;;
11066;SDS011;29763;50.904;5.530;2022-12-18T10:36:06;19.43;;;12.40;;
11066;SDS011;29763;50.904;5.530;2022-12-18T10:38:33;18.00;;;12.20;;
11066;SDS011;29763;50.904;5.530;2022-12-18T10:43:33;23.50;;;13.13;;
11066;SDS011;29763;50.904;5.530;2022-12-18T10:48:47;21.50;;;14.10;;
11066;SDS011;29763;50.904;5.530;2022-12-18T10:54:06;19.60;;;12.90;;
11066;SDS011;29763;50.904;5.530;2022-12-18T10:56:39;20.23;;;13.40;;
11066;SDS011;29763;50.904;5.530;2022-12-18T10:59:06;20.87;;;13.40;;
11066;SDS011;29763;50.904;5.530;2022-12-18T11:04:28;22.73;;;13.83;;
11066;SDS011;29763;50.904;5.530;2022-12-18T11:06:58;22.27;;;14.07;;
11066;SDS011;29763;50.904;5.530;2022-12-18T11:09:29;21.30;;;13.40;;
11066;SDS011;29763;50.904;5.530;2022-12-18T11:11:59;18.93;;;13.00;;
11066;SDS011;29763;50.904;5.530;2022-12-18T11:14:29;20.73;;;13.70;;
11066;SDS011;29763;50.904;5.530;2022-12-18T11:16:59;19.60;;;14.13;;
11066;SDS011;29763;50.904;5.530;2022-12-18T11:22:27;23.70;;;14.30;;
11066;SDS011;29763;50.904;5.530;2022-12-18T11:24:56;22.37;;;13.97;;
11066;SDS011;29763;50.904;5.530;2022-12-18T11:27:25;21.77;;;14.10;;
11066;SDS011;29763;50.904;5.530;2022-12-18T11:30:07;20.67;;;13.77;;
11066;SDS011;29763;50.904;5.530;2022-12-18T11:37:54;21.83;;;14.50;;
11066;SDS011;29763;50.904;5.530;2022-12-18T11:40:35;22.97;;;14.23;;
11066;SDS011;29763;50.904;5.530;2022-12-18T11:43:09;21.53;;;14.83;;
11066;SDS011;29763;50.904;5.530;2022-12-18T11:46:01;22.20;;;14.30;;
11066;SDS011;29763;50.904;5.530;2022-12-18T11:48:47;23.80;;;14.83;;
11066;SDS011;29763;50.904;5.530;2022-12-18T11:51:47;21.77;;;14.33;;
11066;SDS011;29763;50.904;5.530;2022-12-18T11:54:13;24.23;;;15.60;;
11066;SDS011;29763;50.904;5.530;2022-12-18T11:59:53;22.17;;;14.70;;
11066;SDS011;29763;50.904;5.530;2022-12-18T12:08:26;21.30;;;15.13;;
11066;SDS011;29763;50.904;5.530;2022-12-18T12:20:02;21.53;;;14.77;;
11066;SDS011;29763;50.904;5.530;2022-12-18T12:28:13;23.03;;;15.33;;
11066;SDS011;29763;50.904;5.530;2022-12-18T12:31:28;25.93;;;16.07;;
11066;SDS011;29763;50.904;5.530;2022-12-18T12:39:52;24.77;;;15.33;;
11066;SDS011;29763;50.904;5.530;2022-12-18T12:42:20;22.53;;;15.13;;
11066;SDS011;29763;50.904;5.530;2022-12-18T12:45:32;24.73;;;15.40;;
11066;SDS011;29763;50.904;5.530;2022-12-18T12:48:04;28.47;;;16.83;;
11066;SDS011;29763;50.904;5.530;2022-12-18T12:51:08;22.20;;;15.77;;
11066;SDS011;29763;50.904;5.530;2022-12-18T12:53:39;26.57;;;16.50;;
11066;SDS011;29763;50.904;5.530;2022-12-18T12:56:08;24.97;;;16.97;;
11066;SDS011;29763;50.904;5.530;2022-12-18T12:58:48;23.70;;;16.43;;
11066;SDS011;29763;50.904;5.530;2022-12-18T13:01:57;26.87;;;16.83;;
11066;SDS011;29763;50.904;5.530;2022-12-18T13:04:50;24.27;;;15.87;;
11066;SDS011;29763;50.904;5.530;2022-12-18T13:07:41;23.57;;;16.13;;
11066;SDS011;29763;50.904;5.530;2022-12-18T13:10:38;23.63;;;16.13;;
11066;SDS011;29763;50.904;5.530;2022-12-18T13:18:35;24.00;;;16.03;;
11066;SDS011;29763;50.904;5.530;2022-12-18T13:21:08;24.10;;;16.33;;
11066;SDS011;29763;50.904;5.530;2022-12-18T13:23:50;24.80;;;16.73;;
11066;SDS011;29763;50.904;5.530;2022-12-18T13:29:02;27.77;;;16.20;;
11066;SDS011;29763;50.904;5.530;2022-12-18T13:34:21;29.13;;;17.70;;
11066;SDS011;29763;50.904;5.530;2022-12-18T13:36:48;32.93;;;21.10;;
11066;SDS011;29763;50.904;5.530;2022-12-18T13:44:55;25.57;;;17.07;;
11066;SDS011;29763;50.904;5.530;2022-12-18T13:50:41;24.37;;;16.33;;
11066;SDS011;29763;50.904;5.530;2022-12-18T13:53:00;26.40;;;17.07;;
11066;SDS011;29763;50.904;5.530;2022-12-18T13:55:28;24.83;;;17.10;;
11066;SDS011;29763;50.904;5.530;2022-12-18T13:58:03;28.97;;;18.23;;
11066;SDS011;29763;50.904;5.530;2022-12-18T14:00:30;23.13;;;16.23;;
11066;SDS011;29763;50.904;5.530;2022-12-18T14:02:59;24.20;;;16.87;;
11066;SDS011;29763;50.904;5.530;2022-12-18T14:07:52;24.23;;;16.47;;
11066;SDS011;29763;50.904;5.530;2022-12-18T14:10:19;26.27;;;17.13;;
11066;SDS011;29763;50.904;5.530;2022-12-18T14:12:47;25.17;;;16.57;;
11066;SDS011;29763;50.904;5.530;2022-12-18T14:18:00;25.13;;;17.27;;
11066;SDS011;29763;50.904;5.530;2022-12-18T14:20:48;27.90;;;17.67;;
11066;SDS011;29763;50.904;5.530;2022-12-18T14:34:52;22.83;;;16.47;;
11066;SDS011;29763;50.904;5.530;2022-12-18T14:37:23;25.67;;;16.73;;
11066;SDS011;29763;50.904;5.530;2022-12-18T14:39:56;23.23;;;16.67;;
11066;SDS011;29763;50.904;5.530;2022-12-18T14:42:24;26.60;;;17.67;;
11066;SDS011;29763;50.904;5.530;2022-12-18T14:48:51;27.07;;;16.73;;
11066;SDS011;29763;50.904;5.530;2022-12-18T14:51:06;25.57;;;17.53;;
11066;SDS011;29763;50.904;5.530;2022-12-18T14:53:45;27.90;;;17.60;;
11066;SDS011;29763;50.904;5.530;2022-12-18T14:58:50;27.17;;;17.23;;
11066;SDS011;29763;50.904;5.530;2022-12-18T15:01:20;24.13;;;17.20;;
11066;SDS011;29763;50.904;5.530;2022-12-18T15:04:19;29.07;;;17.87;;
11066;SDS011;29763;50.904;5.530;2022-12-18T15:06:50;24.80;;;17.50;;
11066;SDS011;29763;50.904;5.530;2022-12-18T15:09:37;25.47;;;17.70;;
11066;SDS011;29763;50.904;5.530;2022-12-18T15:12:04;25.37;;;17.00;;
11066;SDS011;29763;50.904;5.530;2022-12-18T15:17:06;25.27;;;17.57;;
11066;SDS011;29763;50.904;5.530;2022-12-18T15:19:42;25.83;;;16.97;;
11066;SDS011;29763;50.904;5.530;2022-12-18T15:22:21;27.60;;;17.77;;
11066;SDS011;29763;50.904;5.530;2022-12-18T15:24:51;28.63;;;18.33;;
11066;SDS011;29763;50.904;5.530;2022-12-18T15:30:20;25.07;;;17.50;;
11066;SDS011;29763;50.904;5.530;2022-12-18T15:32:47;28.30;;;17.50;;
11066;SDS011;29763;50.904;5.530;2022-12-18T15:35:16;25.47;;;16.60;;
11066;SDS011;29763;50.904;5.530;2022-12-18T15:37:49;25.17;;;17.53;;
11066;SDS011;29763;50.904;5.530;2022-12-18T15:40:17;26.57;;;17.57;;
11066;SDS011;29763;50.904;5.530;2022-12-18T15:42:51;26.97;;;18.17;;
11066;SDS011;29763;50.904;5.530;2022-12-18T15:45:38;26.40;;;16.87;;
11066;SDS011;29763;50.904;5.530;2022-12-18T15:48:20;28.30;;;17.60;;
11066;SDS011;29763;50.904;5.530;2022-12-18T15:50:52;26.00;;;17.60;;
11066;SDS011;29763;50.904;5.530;2022-12-18T15:53:18;27.03;;;17.23;;
11066;SDS011;29763;50.904;5.530;2022-12-18T15:55:44;27.93;;;17.70;;
11066;SDS011;29763;50.904;5.530;2022-12-18T15:58:31;26.47;;;17.07;;
11066;SDS011;29763;50.904;5.530;2022-12-18T16:00:58;24.37;;;16.60;;
11066;SDS011;29763;50.904;5.530;2022-12-18T16:03:25;26.60;;;16.67;;
11066;SDS011;29763;50.904;5.530;2022-12-18T16:05:56;24.77;;;16.93;;
11066;SDS011;29763;50.904;5.530;2022-12-18T16:08:26;25.17;;;16.53;;
11066;SDS011;29763;50.904;5.530;2022-12-18T16:10:52;26.37;;;17.03;;
11066;SDS011;29763;50.904;5.530;2022-12-18T16:13:18;25.87;;;16.70;;
11066;SDS011;29763;50.904;5.530;2022-12-18T16:25:40;22.90;;;15.93;;
11066;SDS011;29763;50.904;5.530;2022-12-18T16:28:07;25.10;;;16.30;;
11066;SDS011;29763;50.904;5.530;2022-12-18T16:30:32;23.73;;;15.47;;
11066;SDS011;29763;50.904;5.530;2022-12-18T16:32:59;22.50;;;15.33;;
11066;SDS011;29763;50.904;5.530;2022-12-18T16:35:26;20.83;;;14.03;;
11066;SDS011;29763;50.904;5.530;2022-12-18T16:44:38;25.00;;;15.20;;
11066;SDS011;29763;50.904;5.530;2022-12-18T16:47:04;23.57;;;15.27;;
11066;SDS011;29763;50.904;5.530;2022-12-18T16:49:30;24.00;;;15.67;;
11066;SDS011;29763;50.904;5.530;2022-12-18T16:51:57;23.70;;;15.47;;
11066;SDS011;29763;50.904;5.530;2022-12-18T16:54:23;20.40;;;13.87;;
11066;SDS011;29763;50.904;5.530;2022-12-18T16:56:49;23.90;;;15.37;;
11066;SDS011;29763;50.904;5.530;2022-12-18T16:59:15;22.40;;;14.50;;
11066;SDS011;29763;50.904;5.530;2022-12-18T17:01:41;20.33;;;13.70;;
11066;SDS011;29763;50.904;5.530;2022-12-18T17:04:28;21.83;;;14.40;;
11066;SDS011;29763;50.904;5.530;2022-12-18T17:07:00;22.10;;;14.33;;
11066;SDS011;29763;50.904;5.530;2022-12-18T17:09:31;21.17;;;14.33;;
11066;SDS011;29763;50.904;5.530;2022-12-18T17:12:00;23.50;;;14.30;;
11066;SDS011;29763;50.904;5.530;2022-12-18T17:14:26;22.80;;;13.70;;
11066;SDS011;29763;50.904;5.530;2022-12-18T17:16:54;21.67;;;14.37;;
11066;SDS011;29763;50.904;5.530;2022-12-18T17:19:27;22.83;;;14.83;;
11066;SDS011;29763;50.904;5.530;2022-12-18T17:21:53;22.10;;;13.53;;
11066;SDS011;29763;50.904;5.530;2022-12-18T17:24:32;22.27;;;14.00;;
11066;SDS011;29763;50.904;5.530;2022-12-18T17:26:59;21.70;;;14.37;;
11066;SDS011;29763;50.904;5.530;2022-12-18T17:29:32;22.90;;;14.30;;
11066;SDS011;29763;50.904;5.530;2022-12-18T17:38:25;20.23;;;12.93;;
11066;SDS011;29763;50.904;5.530;2022-12-18T17:40:51;20.93;;;13.37;;
11066;SDS011;29763;50.904;5.530;2022-12-18T17:43:20;18.83;;;12.80;;
11066;SDS011;29763;50.904;5.530;2022-12-18T17:45:47;21.03;;;13.83;;
11066;SDS011;29763;50.904;5.530;2022-12-18T17:48:15;19.77;;;13.30;;
11066;SDS011;29763;50.904;5.530;2022-12-18T17:50:41;20.37;;;13.63;;
11066;SDS011;29763;50.904;5.530;2022-12-18T17:53:09;18.77;;;12.03;;
11066;SDS011;29763;50.904;5.530;2022-12-18T17:55:35;20.00;;;13.27;;
11066;SDS011;29763;50.904;5.530;2022-12-18T17:58:03;19.50;;;12.60;;
11066;SDS011;29763;50.904;5.530;2022-12-18T18:00:33;20.53;;;13.23;;
11066;SDS011;29763;50.904;5.530;2022-12-18T18:02:59;21.07;;;13.67;;
11066;SDS011;29763;50.904;5.530;2022-12-18T18:05:25;23.37;;;15.03;;
11066;SDS011;29763;50.904;5.530;2022-12-18T18:07:51;24.73;;;14.37;;
11066;SDS011;29763;50.904;5.530;2022-12-18T18:10:19;21.40;;;13.60;;